Portada
METAR-TAF:

METAR-TAF

Aeropuertos :

Uagadugú, Burkina Faso

Aeropuerto de Uagadugú

latitud: 12-21N, longitud: 001-31W, altitud: 316 m

Observación

El informe se hizo hace 23 minutos, a las 22:00 UTC
Viento 5 kt del norte-noreste
Temperatura 22°C
Humedad 20%
Presión 1015 hPa
Visibilidad 10 km o más
sin nubes por debajo de 1500 m y sin presencia de cumulonimbus.

METAR: DFFD 212200Z 03005KT CAVOK 22/M02 Q1015 NOSIG

Hora: 22:23 (22:23 UTC)

Pronóstico

El informe se hizo hace 5 horas y 23 minutos, a las 17:00 UTC
Pronóstico válido del 21 a las 18 UTC al 22 a las 24 UTC
Viento 8 kt del este con ráfagas de 18 kt
Visibilidad: 8000 m
Temporalmente
del 22 a las 06 UTC al 22 a las 10 UTC
Visibilidad: 3500 m
Polvo extendido

TAF: DFFD 211700Z 2118/2224 08008G18KT 8000 NSC TEMPO 2206/2210 3500 DU

Observaciones y pronósticos meteorológicos de más de 4000 aeropuertos (mensajes METAR y TAF).

Los puntos amarillos y rojos representan las estaciones disponibles.

Ponga el ratón en el punto deseado para ver el nombre de la estación.

Haga clic para ver las observaciones y los pronósticos meteorológicos.

Para cambiar el mapa : haga clic en los botones verdes con una cruz de color negro para hacer un zoom, en el botón verde con un guión para alejar o en las flechas verdes para mapas adyacentes.


METAR-TAF: